createdAt,value
2018-11-11T00:02:21.581Z,7.80
2018-11-11T00:04:56.265Z,7.80
2018-11-11T00:07:30.850Z,7.90
2018-11-11T00:10:05.858Z,7.90
2018-11-11T00:12:40.782Z,7.90
2018-11-11T00:15:16.461Z,7.90
2018-11-11T00:17:51.060Z,7.90
2018-11-11T00:20:25.562Z,7.90
2018-11-11T00:23:00.211Z,7.90
2018-11-11T00:25:35.244Z,7.90
2018-11-11T00:28:09.839Z,7.90
2018-11-11T00:30:44.313Z,7.90
2018-11-11T00:33:18.874Z,7.90
2018-11-11T00:35:53.729Z,7.90
2018-11-11T00:38:28.082Z,7.90
2018-11-11T00:41:02.889Z,7.90
2018-11-11T00:43:37.105Z,7.90
2018-11-11T00:46:11.849Z,7.90
2018-11-11T00:48:46.458Z,7.80
2018-11-11T00:51:21.149Z,7.80
2018-11-11T00:53:55.812Z,7.80
2018-11-11T00:56:30.417Z,7.80
2018-11-11T00:59:05.671Z,7.80
2018-11-11T01:01:40.673Z,7.80
2018-11-11T01:04:15.382Z,7.90
2018-11-11T01:06:49.825Z,7.80
2018-11-11T01:09:24.254Z,7.80
2018-11-11T01:11:59.227Z,7.80
2018-11-11T01:14:33.405Z,7.80
2018-11-11T01:17:08.541Z,7.70
2018-11-11T01:19:43.495Z,7.70
2018-11-11T01:22:18.038Z,7.70
2018-11-11T01:24:52.663Z,7.70
2018-11-11T01:27:27.608Z,7.80
2018-11-11T01:30:01.990Z,7.80
2018-11-11T01:32:37.008Z,7.80
2018-11-11T01:35:12.626Z,7.90
2018-11-11T01:37:46.882Z,7.80
2018-11-11T01:40:21.433Z,7.90
2018-11-11T01:42:56.175Z,7.90
2018-11-11T01:45:30.809Z,7.90
2018-11-11T01:48:05.774Z,7.90
2018-11-11T01:50:41.006Z,7.90
2018-11-11T01:53:15.319Z,7.90
2018-11-11T01:55:49.934Z,7.90
2018-11-11T01:58:25.566Z,8.00
2018-11-11T02:01:00.550Z,7.90
2018-11-11T02:03:34.840Z,7.90
2018-11-11T02:06:09.570Z,7.90
2018-11-11T02:08:44.049Z,7.90
2018-11-11T02:11:18.588Z,7.90
2018-11-11T02:13:53.128Z,7.90
2018-11-11T02:16:27.834Z,7.90
2018-11-11T02:19:02.580Z,7.90
2018-11-11T02:21:37.386Z,7.90
2018-11-11T02:24:11.804Z,7.90
2018-11-11T02:26:46.321Z,8.00
2018-11-11T02:29:21.033Z,8.00
2018-11-11T02:31:55.962Z,8.00
2018-11-11T02:34:31.188Z,8.00
2018-11-11T02:37:05.912Z,8.10
2018-11-11T02:39:40.078Z,8.10
2018-11-11T02:42:14.566Z,8.10
2018-11-11T02:44:49.237Z,8.10
2018-11-11T02:47:23.821Z,8.10
2018-11-11T02:49:58.321Z,8.10
2018-11-11T02:52:32.913Z,8.10
2018-11-11T02:55:08.233Z,8.10
2018-11-11T02:57:43.864Z,8.10
2018-11-11T03:00:20.015Z,8.20
2018-11-11T03:02:54.304Z,8.20
2018-11-11T03:05:28.849Z,8.20
2018-11-11T03:08:03.456Z,8.20
2018-11-11T03:10:38.017Z,8.20
2018-11-11T03:13:12.642Z,8.20
2018-11-11T03:15:47.257Z,8.20
2018-11-11T03:18:21.871Z,8.20
2018-11-11T03:20:56.491Z,8.20
2018-11-11T03:23:31.021Z,8.20
2018-11-11T03:26:06.222Z,8.20
2018-11-11T03:28:41.122Z,8.20
2018-11-11T03:31:15.674Z,8.30
2018-11-11T03:33:50.237Z,8.30
2018-11-11T03:36:24.681Z,8.30
2018-11-11T03:38:59.329Z,8.30
2018-11-11T03:41:34.212Z,8.40
2018-11-11T03:44:08.350Z,8.40
2018-11-11T03:46:42.902Z,8.40
2018-11-11T03:49:17.525Z,8.40
2018-11-11T03:51:52.107Z,8.40
2018-11-11T03:54:26.797Z,8.40
2018-11-11T03:57:01.426Z,8.40
2018-11-11T03:59:35.779Z,8.30
2018-11-11T04:02:10.218Z,8.30
2018-11-11T04:04:44.686Z,8.30
2018-11-11T04:07:19.334Z,8.30
2018-11-11T04:09:53.802Z,8.30
2018-11-11T04:12:28.401Z,8.30
2018-11-11T04:15:03.657Z,8.40
2018-11-11T04:17:38.977Z,8.40
2018-11-11T04:20:20.769Z,8.40
2018-11-11T04:22:55.625Z,8.40
2018-11-11T04:25:30.322Z,8.40
2018-11-11T04:28:05.157Z,8.40
2018-11-11T04:30:39.410Z,8.40
2018-11-11T04:33:14.094Z,8.40
2018-11-11T04:35:48.832Z,8.40
2018-11-11T04:38:23.637Z,8.40
2018-11-11T04:40:57.867Z,8.40
2018-11-11T04:43:32.477Z,8.40
2018-11-11T04:46:06.984Z,8.40
2018-11-11T04:48:41.660Z,8.40
2018-11-11T04:51:16.090Z,8.40
2018-11-11T04:53:50.541Z,8.40
2018-11-11T04:56:25.315Z,8.50
2018-11-11T04:58:59.865Z,8.40
2018-11-11T05:01:34.305Z,8.40
2018-11-11T05:04:09.005Z,8.30
2018-11-11T05:06:43.623Z,8.20
2018-11-11T05:09:18.210Z,8.20
2018-11-11T05:11:52.826Z,8.20
2018-11-11T05:14:27.393Z,8.10
2018-11-11T05:17:01.909Z,8.10
2018-11-11T05:19:36.597Z,8.10
2018-11-11T05:22:11.089Z,8.00
2018-11-11T05:24:45.801Z,8.00
2018-11-11T05:27:20.329Z,7.90
2018-11-11T05:29:54.834Z,7.90
2018-11-11T05:32:29.037Z,7.90
2018-11-11T05:35:03.731Z,7.80
2018-11-11T05:37:38.518Z,7.80
2018-11-11T05:40:13.451Z,7.70
2018-11-11T05:42:48.488Z,7.70
2018-11-11T05:45:22.921Z,7.70
2018-11-11T05:47:57.481Z,7.60
2018-11-11T05:50:32.185Z,7.60
2018-11-11T05:53:06.714Z,7.60
2018-11-11T05:55:41.592Z,7.50
2018-11-11T05:58:15.950Z,7.50
2018-11-11T06:00:50.821Z,7.50
2018-11-11T06:03:25.488Z,7.50
2018-11-11T06:05:59.991Z,7.50
2018-11-11T06:08:34.727Z,7.50
2018-11-11T06:11:09.573Z,7.40
2018-11-11T06:13:43.805Z,7.40
2018-11-11T06:16:18.344Z,7.40
2018-11-11T06:18:52.888Z,7.40
2018-11-11T06:21:27.523Z,7.30
2018-11-11T06:24:02.119Z,7.30
2018-11-11T06:26:36.746Z,7.30
2018-11-11T06:29:11.288Z,7.30
2018-11-11T06:31:45.891Z,7.30
2018-11-11T06:34:20.591Z,7.30
2018-11-11T06:36:55.574Z,7.30
2018-11-11T06:39:29.661Z,7.30
2018-11-11T06:42:04.677Z,7.20
2018-11-11T06:44:39.081Z,7.20
2018-11-11T06:47:13.657Z,7.10
2018-11-11T06:49:48.206Z,7.20
2018-11-11T06:52:22.813Z,7.20
2018-11-11T06:54:57.441Z,7.20
2018-11-11T06:57:32.065Z,7.20
2018-11-11T07:00:09.544Z,7.20
2018-11-11T07:03:01.735Z,7.30
2018-11-11T07:05:36.055Z,7.30
2018-11-11T07:08:10.573Z,7.40
2018-11-11T07:10:45.473Z,7.40
2018-11-11T07:13:19.745Z,7.40
2018-11-11T07:15:54.428Z,7.50
2018-11-11T07:18:29.059Z,7.50
2018-11-11T07:21:04.117Z,7.60
2018-11-11T07:23:38.550Z,7.80
2018-11-11T07:26:12.941Z,7.80
2018-11-11T07:28:47.356Z,8.00
2018-11-11T07:31:21.957Z,8.10
2018-11-11T07:33:56.530Z,8.30
2018-11-11T07:36:31.275Z,8.30
2018-11-11T07:39:10.053Z,8.30
2018-11-11T07:41:44.178Z,8.30
2018-11-11T07:44:18.755Z,8.30
2018-11-11T07:46:53.563Z,8.30
2018-11-11T07:49:28.232Z,8.30
2018-11-11T07:52:02.752Z,8.30
2018-11-11T07:54:37.399Z,8.50
2018-11-11T07:57:12.029Z,8.50
2018-11-11T07:59:46.657Z,8.60
2018-11-11T08:02:21.198Z,8.60
2018-11-11T08:04:55.855Z,8.60
2018-11-11T08:07:30.323Z,8.60
2018-11-11T08:10:15.241Z,8.60
2018-11-11T08:12:49.713Z,8.60
2018-11-11T08:15:24.524Z,8.60
2018-11-11T08:17:59.065Z,8.60
2018-11-11T08:20:35.174Z,8.70
2018-11-11T08:23:10.161Z,8.70
2018-11-11T08:25:45.294Z,8.70
2018-11-11T08:28:19.470Z,8.80
2018-11-11T08:30:53.961Z,8.80
2018-11-11T08:33:28.561Z,9.00
2018-11-11T08:36:03.732Z,9.00
2018-11-11T08:38:38.954Z,9.10
2018-11-11T08:41:13.441Z,9.20
2018-11-11T08:43:47.986Z,9.20
2018-11-11T08:46:22.691Z,9.30
2018-11-11T08:48:57.370Z,9.30
2018-11-11T08:51:31.925Z,9.40
2018-11-11T08:54:06.641Z,9.40
2018-11-11T08:56:41.317Z,9.40
2018-11-11T08:59:16.140Z,9.50
2018-11-11T09:01:50.751Z,9.50
2018-11-11T09:04:25.706Z,9.60
2018-11-11T09:07:00.356Z,9.60
2018-11-11T09:09:34.812Z,9.60
2018-11-11T09:12:09.195Z,9.70
2018-11-11T09:14:43.735Z,9.70
2018-11-11T09:17:18.497Z,9.60
2018-11-11T09:19:53.065Z,9.70
2018-11-11T09:22:27.724Z,9.80
2018-11-11T09:25:02.619Z,9.80
2018-11-11T09:27:37.584Z,10.00
2018-11-11T09:30:13.733Z,10.10
2018-11-11T09:32:48.165Z,10.10
2018-11-11T09:35:22.614Z,10.10
2018-11-11T09:37:57.143Z,10.10
2018-11-11T09:40:31.724Z,10.10
2018-11-11T09:43:06.327Z,10.20
2018-11-11T09:45:40.873Z,10.20
2018-11-11T09:48:15.334Z,10.20
2018-11-11T09:50:49.869Z,10.30
2018-11-11T09:53:24.705Z,10.40
2018-11-11T09:55:59.001Z,10.40
2018-11-11T09:58:33.672Z,10.50
2018-11-11T10:01:08.358Z,10.60
2018-11-11T10:03:48.738Z,10.70
2018-11-11T10:06:42.391Z,10.90
2018-11-11T10:09:30.305Z,11.00
2018-11-11T10:12:15.868Z,11.20
2018-11-11T10:15:03.195Z,11.40
2018-11-11T10:17:43.897Z,11.70
2018-11-11T10:20:22.946Z,11.90
2018-11-11T10:23:06.678Z,12.10
2018-11-11T10:25:45.531Z,12.30
2018-11-11T10:29:27.776Z,12.50
2018-11-11T10:32:27.886Z,12.60
2018-11-11T10:35:21.432Z,12.70
2018-11-11T10:38:03.005Z,12.70
2018-11-11T10:40:44.269Z,12.80
2018-11-11T10:43:30.260Z,12.90
2018-11-11T10:46:12.710Z,12.90
2018-11-11T10:48:51.793Z,12.90
2018-11-11T10:51:26.203Z,12.90
2018-11-11T10:54:00.611Z,12.90
2018-11-11T10:56:35.221Z,12.90
2018-11-11T10:59:10.317Z,12.90
2018-11-11T11:01:50.639Z,13.00
2018-11-11T11:04:25.481Z,13.10
2018-11-11T11:07:06.517Z,13.10
2018-11-11T11:09:40.854Z,13.20
2018-11-11T11:12:15.672Z,13.30
2018-11-11T11:14:50.638Z,13.40
2018-11-11T11:17:25.373Z,13.50
2018-11-11T11:20:00.074Z,13.40
2018-11-11T11:22:34.663Z,13.40
2018-11-11T11:25:13.538Z,13.30
2018-11-11T11:27:47.928Z,13.20
2018-11-11T11:30:22.394Z,13.20
2018-11-11T11:32:57.017Z,13.20
2018-11-11T11:35:31.775Z,13.20
2018-11-11T11:38:06.508Z,13.10
2018-11-11T11:40:41.218Z,13.10
2018-11-11T11:43:15.621Z,13.10
2018-11-11T11:45:50.207Z,13.10
2018-11-11T11:48:24.861Z,13.10
2018-11-11T11:50:59.478Z,13.10
2018-11-11T11:53:34.022Z,13.00
2018-11-11T11:56:08.655Z,13.00
2018-11-11T11:58:43.388Z,13.00
2018-11-11T12:01:18.050Z,13.00
2018-11-11T12:03:52.753Z,13.00
2018-11-11T12:06:27.353Z,13.10
2018-11-11T12:09:01.965Z,13.10
2018-11-11T12:11:38.573Z,13.10
2018-11-11T12:14:13.024Z,13.20
2018-11-11T12:16:47.814Z,13.20
2018-11-11T12:19:22.266Z,13.40
2018-11-11T12:21:57.253Z,13.50
2018-11-11T12:24:31.993Z,13.50
2018-11-11T12:27:06.602Z,13.50
2018-11-11T12:29:41.307Z,13.60
2018-11-11T12:32:15.981Z,13.60
2018-11-11T12:34:50.663Z,13.60
2018-11-11T12:37:25.358Z,13.60
2018-11-11T12:40:00.064Z,13.60
2018-11-11T12:42:34.547Z,13.60
2018-11-11T12:45:09.910Z,13.60
2018-11-11T12:47:45.114Z,13.60
2018-11-11T12:50:19.752Z,13.60
2018-11-11T12:52:54.184Z,13.60
2018-11-11T12:55:28.776Z,13.60
2018-11-11T12:58:03.824Z,13.60
2018-11-11T13:00:38.035Z,13.60
2018-11-11T13:03:12.929Z,13.60
2018-11-11T13:05:47.721Z,13.60
2018-11-11T13:08:22.411Z,13.60
2018-11-11T13:10:56.951Z,13.60
2018-11-11T13:13:31.949Z,13.70
2018-11-11T13:16:07.073Z,13.70
2018-11-11T13:18:41.736Z,13.70
2018-11-11T13:21:16.322Z,13.80
2018-11-11T13:23:53.981Z,13.80
2018-11-11T13:26:30.865Z,13.80
2018-11-11T13:29:08.570Z,13.90
2018-11-11T13:31:47.243Z,13.80
2018-11-11T13:34:25.445Z,13.90
2018-11-11T13:37:02.334Z,13.80
2018-11-11T13:39:39.463Z,13.80
2018-11-11T13:42:17.298Z,13.90
2018-11-11T13:44:53.998Z,13.90
2018-11-11T13:47:31.058Z,13.90
2018-11-11T13:50:13.485Z,13.90
2018-11-11T13:52:48.429Z,13.90
2018-11-11T13:55:22.644Z,13.90
2018-11-11T13:57:57.188Z,14.00
2018-11-11T14:00:31.846Z,14.00
2018-11-11T14:03:06.364Z,14.00
2018-11-11T14:05:40.898Z,14.00
2018-11-11T14:08:15.919Z,14.00
2018-11-11T14:10:50.154Z,14.00
2018-11-11T14:13:24.697Z,14.00
2018-11-11T14:15:59.311Z,14.00
2018-11-11T14:18:34.123Z,14.10
2018-11-11T14:21:08.555Z,14.10
2018-11-11T14:23:43.171Z,14.10
2018-11-11T14:26:17.788Z,14.10
2018-11-11T14:28:52.374Z,14.10
2018-11-11T14:31:27.100Z,14.10
2018-11-11T14:34:01.960Z,14.10
2018-11-11T14:36:36.748Z,14.10
2018-11-11T14:39:12.809Z,14.20
2018-11-11T14:41:47.695Z,14.20
2018-11-11T14:44:22.992Z,14.20
2018-11-11T14:46:57.565Z,14.20
2018-11-11T14:49:32.677Z,14.20
2018-11-11T14:52:07.515Z,14.20
2018-11-11T14:54:42.035Z,14.20
2018-11-11T14:57:16.665Z,14.10
2018-11-11T14:59:51.471Z,14.10
2018-11-11T15:02:25.691Z,14.10
2018-11-11T15:05:00.139Z,14.00
2018-11-11T15:07:34.741Z,14.00
2018-11-11T15:10:11.081Z,14.00
2018-11-11T15:12:46.038Z,13.90
2018-11-11T15:15:22.163Z,13.90
2018-11-11T15:17:57.426Z,13.80
2018-11-11T15:20:32.832Z,13.80
2018-11-11T15:23:07.594Z,13.70
2018-11-11T15:25:41.736Z,13.70
2018-11-11T15:28:16.772Z,13.60
2018-11-11T15:30:51.424Z,13.50
2018-11-11T15:33:25.999Z,13.50
2018-11-11T15:36:00.541Z,13.50
2018-11-11T15:38:35.205Z,13.50
2018-11-11T15:41:09.724Z,13.50
2018-11-11T15:43:44.025Z,13.40
2018-11-11T15:46:18.529Z,13.40
2018-11-11T15:48:53.152Z,13.40
2018-11-11T15:51:27.850Z,13.40
2018-11-11T15:54:02.530Z,13.30
2018-11-11T15:56:37.146Z,13.30
2018-11-11T15:59:11.726Z,13.20
2018-11-11T16:01:46.698Z,13.10
2018-11-11T16:04:21.031Z,13.00
2018-11-11T16:06:55.603Z,12.90
2018-11-11T16:09:30.460Z,12.80
2018-11-11T16:12:05.462Z,12.70
2018-11-11T16:14:40.542Z,12.50
2018-11-11T16:17:15.084Z,12.50
2018-11-11T16:19:49.763Z,12.40
2018-11-11T16:22:24.285Z,12.30
2018-11-11T16:24:58.945Z,12.20
2018-11-11T16:27:33.882Z,12.10
2018-11-11T16:30:13.027Z,12.10
2018-11-11T16:32:48.453Z,12.10
2018-11-11T16:35:24.824Z,12.10
2018-11-11T16:38:00.453Z,12.00
2018-11-11T16:40:36.185Z,12.00
2018-11-11T16:43:10.534Z,12.00
2018-11-11T16:45:45.126Z,11.90
2018-11-11T16:48:19.637Z,11.90
2018-11-11T16:50:56.030Z,11.80
2018-11-11T16:53:30.873Z,11.80
2018-11-11T16:56:05.954Z,11.70
2018-11-11T16:58:41.747Z,11.60
2018-11-11T17:01:16.513Z,11.60
2018-11-11T17:03:51.131Z,11.50
2018-11-11T17:06:25.630Z,11.50
2018-11-11T17:09:00.187Z,11.50
2018-11-11T17:11:34.721Z,11.50
2018-11-11T17:14:09.900Z,11.40
2018-11-11T17:16:43.997Z,11.40
2018-11-11T17:19:18.478Z,11.30
2018-11-11T17:21:53.171Z,11.20
2018-11-11T17:24:27.653Z,11.10
2018-11-11T17:27:02.268Z,11.00
2018-11-11T17:29:36.769Z,11.00
2018-11-11T17:32:11.341Z,11.00
2018-11-11T19:00:04.626Z,10.20
2018-11-11T19:02:39.847Z,10.10
2018-11-11T19:05:16.536Z,10.10
2018-11-11T19:07:51.655Z,10.10
2018-11-11T19:10:29.403Z,10.10
2018-11-11T19:13:06.634Z,10.10
2018-11-11T19:15:41.241Z,10.00
2018-11-11T19:18:17.241Z,10.00
2018-11-11T19:20:52.602Z,9.90
2018-11-11T19:23:28.302Z,9.90
2018-11-11T19:26:05.099Z,9.80
2018-11-11T19:28:40.313Z,9.80
2018-11-11T19:31:15.644Z,9.70
2018-11-11T19:33:51.332Z,9.70
2018-11-11T19:36:27.178Z,9.60
2018-11-11T19:39:04.074Z,9.60
2018-11-11T19:41:41.435Z,9.60
2018-11-11T19:44:17.409Z,9.80
2018-11-11T19:46:54.267Z,10.00
2018-11-11T19:49:31.996Z,10.10
2018-11-11T19:52:09.652Z,10.30
2018-11-11T19:54:46.362Z,10.20
2018-11-11T19:57:22.912Z,10.20
2018-11-11T19:59:58.879Z,10.20
2018-11-11T20:02:35.273Z,10.10
2018-11-11T20:05:13.215Z,9.90
2018-11-11T20:07:50.246Z,9.80
2018-11-11T20:10:27.308Z,9.70
2018-11-11T20:13:04.475Z,9.50
2018-11-11T20:15:41.153Z,9.40
2018-11-11T20:18:17.651Z,9.30
2018-11-11T20:20:54.832Z,9.30
2018-11-11T20:23:30.890Z,9.30
2018-11-11T20:26:08.884Z,9.20
2018-11-11T20:28:45.457Z,9.20
2018-11-11T20:31:22.433Z,9.20
2018-11-11T20:33:59.367Z,9.10
2018-11-11T20:36:36.647Z,9.10
2018-11-11T20:39:13.753Z,9.00
2018-11-11T20:41:50.615Z,9.00
2018-11-11T20:44:26.820Z,8.90
2018-11-11T20:47:03.371Z,8.90
2018-11-11T20:49:40.637Z,8.80
2018-11-11T20:52:16.172Z,8.80
2018-11-11T20:54:51.672Z,8.70
2018-11-11T20:57:27.187Z,8.70
2018-11-11T21:00:02.220Z,8.70
2018-11-11T21:02:37.914Z,8.60
2018-11-11T21:05:14.073Z,8.60
2018-11-11T21:07:49.085Z,8.60
2018-11-11T21:10:25.315Z,8.50
2018-11-11T21:13:00.573Z,8.50
2018-11-11T21:15:35.137Z,8.40
2018-11-11T21:18:09.859Z,8.40
2018-11-11T21:20:45.323Z,8.30
2018-11-11T21:23:20.741Z,8.30
2018-11-11T21:25:55.776Z,8.20
2018-11-11T21:28:30.343Z,8.20
2018-11-11T21:31:05.274Z,8.20
2018-11-11T21:33:39.654Z,8.10
2018-11-11T21:36:14.321Z,8.10
2018-11-11T21:38:49.165Z,8.10
2018-11-11T21:41:23.809Z,8.00
2018-11-11T21:43:58.620Z,8.00
2018-11-11T21:46:33.246Z,7.90
2018-11-11T21:49:08.036Z,7.90
2018-11-11T21:51:42.191Z,7.80
2018-11-11T21:54:16.837Z,7.80
2018-11-11T21:56:51.725Z,7.80
2018-11-11T21:59:26.641Z,7.80
2018-11-11T22:02:01.218Z,7.80
2018-11-11T22:04:35.777Z,7.70
2018-11-11T22:07:10.371Z,7.80
2018-11-11T22:09:45.361Z,7.70
2018-11-11T22:12:20.467Z,7.70
2018-11-11T22:14:55.220Z,7.80
2018-11-11T22:17:29.948Z,7.80
2018-11-11T22:20:06.108Z,7.90
2018-11-11T22:22:40.827Z,7.90
2018-11-11T22:25:15.037Z,8.00
2018-11-11T22:27:50.077Z,8.00
2018-11-11T22:30:24.736Z,8.00
2018-11-11T22:32:58.958Z,8.10
2018-11-11T22:35:33.686Z,8.10
2018-11-11T22:38:08.248Z,8.00
2018-11-11T22:40:42.912Z,8.10
2018-11-11T22:43:17.501Z,8.10
2018-11-11T22:45:52.001Z,8.20
2018-11-11T22:48:27.524Z,8.10
2018-11-11T22:51:02.029Z,8.20
2018-11-11T22:53:36.948Z,8.20
2018-11-11T22:56:11.780Z,8.20
2018-11-11T22:58:46.320Z,8.20
2018-11-11T23:01:21.916Z,8.20
2018-11-11T23:03:56.705Z,8.20
2018-11-11T23:06:32.984Z,8.20
2018-11-11T23:09:11.613Z,8.20
2018-11-11T23:11:46.074Z,8.20
2018-11-11T23:14:20.871Z,8.20
2018-11-11T23:16:55.405Z,8.20
2018-11-11T23:19:30.153Z,8.20
2018-11-11T23:22:05.266Z,8.10
2018-11-11T23:24:39.881Z,8.10
2018-11-11T23:27:14.857Z,8.10
2018-11-11T23:29:49.593Z,8.10
2018-11-11T23:32:24.416Z,8.00
2018-11-11T23:34:59.048Z,8.00
2018-11-11T23:37:33.964Z,7.90
2018-11-11T23:40:10.573Z,7.90
2018-11-11T23:42:45.793Z,7.90
2018-11-11T23:45:20.964Z,7.80
2018-11-11T23:47:55.446Z,7.80
2018-11-11T23:50:29.972Z,7.80
2018-11-11T23:53:04.800Z,7.80
2018-11-11T23:55:39.483Z,7.80
2018-11-11T23:58:13.957Z,7.70
